createdAt,value
2019-03-23T00:00:37.390Z,17.70
2019-03-23T00:03:34.364Z,18.05
2019-03-23T00:06:31.138Z,16.93
2019-03-23T00:09:28.019Z,16.73
2019-03-23T00:12:24.257Z,17.12
2019-03-23T00:15:20.662Z,17.42
2019-03-23T00:18:16.587Z,16.42
2019-03-23T00:21:13.129Z,17.23
2019-03-23T00:24:09.426Z,17.23
2019-03-23T00:27:05.876Z,17.00
2019-03-23T00:30:02.296Z,17.57
2019-03-23T00:32:58.913Z,16.80
2019-03-23T00:35:55.265Z,17.35
2019-03-23T00:38:52.198Z,17.30
2019-03-23T00:41:48.615Z,19.50
2019-03-23T00:44:45.458Z,21.57
2019-03-23T00:47:41.981Z,21.02
2019-03-23T00:50:38.427Z,21.93
2019-03-23T00:53:34.861Z,21.40
2019-03-23T00:56:31.438Z,21.50
2019-03-23T00:59:27.854Z,20.45
2019-03-23T01:02:24.949Z,20.85
2019-03-23T01:05:21.684Z,19.80
2019-03-23T01:08:18.167Z,17.90
2019-03-23T01:11:15.070Z,18.20
2019-03-23T01:14:11.746Z,18.73
2019-03-23T01:17:08.167Z,18.60
2019-03-23T01:20:04.766Z,19.75
2019-03-23T01:23:01.610Z,21.07
2019-03-23T01:25:58.227Z,21.35
2019-03-23T01:28:55.085Z,25.30
2019-03-23T01:31:51.624Z,25.80
2019-03-23T01:34:50.232Z,26.80
2019-03-23T01:37:46.997Z,28.25
2019-03-23T01:40:43.243Z,29.82
2019-03-23T01:43:39.692Z,30.48
2019-03-23T01:46:35.751Z,32.25
2019-03-23T01:49:32.441Z,31.10
2019-03-23T01:52:28.873Z,30.88
2019-03-23T01:55:25.701Z,34.20
2019-03-23T01:58:22.251Z,33.53
2019-03-23T02:01:19.557Z,32.78
2019-03-23T02:04:16.251Z,30.55
2019-03-23T02:07:14.290Z,28.80
2019-03-23T02:10:10.633Z,26.77
2019-03-23T02:13:07.433Z,24.67
2019-03-23T02:16:04.786Z,22.00
2019-03-23T02:19:01.405Z,20.57
2019-03-23T02:21:58.175Z,20.70
2019-03-23T02:24:54.162Z,19.35
2019-03-23T02:27:50.312Z,18.55
2019-03-23T02:30:46.835Z,18.60
2019-03-23T02:33:43.248Z,17.92
2019-03-23T02:36:39.825Z,17.17
2019-03-23T02:39:36.304Z,16.55
2019-03-23T02:42:32.911Z,17.45
2019-03-23T02:45:30.389Z,16.65
2019-03-23T02:48:26.296Z,18.90
2019-03-23T02:51:22.727Z,18.07
2019-03-23T02:54:19.366Z,18.90
2019-03-23T02:57:16.237Z,19.70
2019-03-23T03:00:13.729Z,19.40
2019-03-23T03:03:10.477Z,20.48
2019-03-23T03:06:06.947Z,19.87
2019-03-23T03:09:03.584Z,18.80
2019-03-23T03:12:00.659Z,18.80
2019-03-23T03:14:59.464Z,19.15
2019-03-23T03:17:56.987Z,18.05
2019-03-23T03:20:54.779Z,18.50
2019-03-23T03:23:51.088Z,18.77
2019-03-23T03:26:48.080Z,18.42
2019-03-23T03:29:46.504Z,19.42
2019-03-23T03:32:42.794Z,19.30
2019-03-23T03:35:39.417Z,18.90
2019-03-23T03:38:35.815Z,18.95
2019-03-23T03:41:32.245Z,17.23
2019-03-23T03:44:28.832Z,16.32
2019-03-23T03:47:25.225Z,15.72
2019-03-23T03:50:23.774Z,16.52
2019-03-23T03:53:20.232Z,17.60
2019-03-23T03:56:16.789Z,17.67
2019-03-23T03:59:13.515Z,16.57
2019-03-23T04:02:10.138Z,16.95
2019-03-23T04:05:06.517Z,14.20
2019-03-23T04:08:10.892Z,14.58
2019-03-23T04:11:01.740Z,14.75
2019-03-23T04:13:58.409Z,13.80
2019-03-23T04:16:54.708Z,14.40
2019-03-23T04:19:51.357Z,13.38
2019-03-23T04:22:47.500Z,14.20
2019-03-23T04:25:43.719Z,13.22
2019-03-23T04:28:41.614Z,14.00
2019-03-23T04:31:38.014Z,13.35
2019-03-23T04:34:35.422Z,13.80
2019-03-23T04:37:32.617Z,14.30
2019-03-23T04:40:29.060Z,14.23
2019-03-23T04:43:25.436Z,14.03
2019-03-23T04:46:22.550Z,13.72
2019-03-23T04:49:18.852Z,13.32
2019-03-23T04:52:33.437Z,13.40
2019-03-23T04:55:31.259Z,14.25
2019-03-23T04:58:27.719Z,14.70
2019-03-23T05:01:24.004Z,14.50
2019-03-23T05:04:20.083Z,13.72
2019-03-23T05:07:16.129Z,14.20
2019-03-23T05:10:12.883Z,14.47
2019-03-23T05:13:09.671Z,14.07
2019-03-23T05:16:08.783Z,15.10
2019-03-23T05:19:13.701Z,14.25
2019-03-23T05:22:11.442Z,14.18
2019-03-23T05:25:11.368Z,14.53
2019-03-23T05:28:09.011Z,13.10
2019-03-23T05:31:07.056Z,14.05
2019-03-23T05:34:02.334Z,14.18
2019-03-23T05:36:58.313Z,13.85
2019-03-23T05:39:55.049Z,12.60
2019-03-23T05:42:51.982Z,13.32
2019-03-23T05:45:48.516Z,12.73
2019-03-23T05:48:44.604Z,13.72
2019-03-23T05:51:41.112Z,13.88
2019-03-23T05:54:37.857Z,13.45
2019-03-23T05:57:34.629Z,12.95
2019-03-23T06:00:30.973Z,12.63
2019-03-23T06:03:32.498Z,13.62
2019-03-23T06:06:29.039Z,13.80
2019-03-23T06:09:31.831Z,13.28
2019-03-23T06:12:29.771Z,13.53
2019-03-23T06:15:26.275Z,13.83
2019-03-23T06:18:23.441Z,13.62
2019-03-23T06:21:20.256Z,13.60
2019-03-23T06:24:16.904Z,13.20
2019-03-23T06:27:14.064Z,12.68
2019-03-23T06:30:15.253Z,12.33
2019-03-23T06:33:12.807Z,13.05
2019-03-23T06:36:09.277Z,12.95
2019-03-23T06:39:06.267Z,13.90
2019-03-23T06:42:02.449Z,13.45
2019-03-23T06:44:58.491Z,13.30
2019-03-23T06:47:54.600Z,13.45
2019-03-23T06:50:51.838Z,13.45
2019-03-23T06:53:48.583Z,13.62
2019-03-23T06:56:48.969Z,14.33
2019-03-23T06:59:51.812Z,13.65
2019-03-23T07:02:48.898Z,13.22
2019-03-23T07:05:46.052Z,14.15
2019-03-23T07:08:48.080Z,13.90
2019-03-23T07:11:44.755Z,15.25
2019-03-23T07:14:41.197Z,14.53
2019-03-23T07:17:37.871Z,14.85
2019-03-23T07:20:34.668Z,14.58
2019-03-23T07:23:33.957Z,14.50
2019-03-23T07:26:31.499Z,18.05
2019-03-23T07:29:38.340Z,17.55
2019-03-23T07:32:43.383Z,17.45
2019-03-23T07:35:53.371Z,16.70
2019-03-23T07:38:49.745Z,16.65
2019-03-23T07:41:46.002Z,16.52
2019-03-23T07:44:45.082Z,16.55
2019-03-23T07:47:46.880Z,15.78
2019-03-23T07:50:43.067Z,15.30
2019-03-23T07:53:44.074Z,15.90
2019-03-23T07:56:38.551Z,15.13
2019-03-23T07:59:34.857Z,15.15
2019-03-23T08:02:33.048Z,15.00
2019-03-23T08:05:29.101Z,14.93
2019-03-23T08:08:25.903Z,14.95
2019-03-23T08:11:22.491Z,15.88
2019-03-23T08:14:18.851Z,14.75
2019-03-23T08:17:15.055Z,15.60
2019-03-23T08:20:11.935Z,15.50
2019-03-23T08:23:11.477Z,15.53
2019-03-23T08:26:05.093Z,14.55
2019-03-23T08:29:03.288Z,15.58
2019-03-23T08:31:58.665Z,17.82
2019-03-23T08:34:55.053Z,15.10
2019-03-23T08:37:51.456Z,14.65
2019-03-23T08:40:48.578Z,14.15
2019-03-23T08:43:45.508Z,13.88
2019-03-23T08:46:47.851Z,13.95
2019-03-23T08:49:44.494Z,13.80
2019-03-23T08:52:42.365Z,14.00
2019-03-23T08:55:38.869Z,12.82
2019-03-23T08:58:33.392Z,12.53
2019-03-23T09:01:30.279Z,12.00
2019-03-23T09:04:27.532Z,13.00
2019-03-23T09:07:25.252Z,12.28
2019-03-23T09:10:21.311Z,11.88
2019-03-23T09:13:17.751Z,12.30
2019-03-23T09:16:23.721Z,12.23
2019-03-23T09:19:23.230Z,12.18
2019-03-23T09:22:32.370Z,13.15
2019-03-23T09:25:31.959Z,12.80
2019-03-23T09:28:59.654Z,12.63
2019-03-23T09:31:56.569Z,13.08
2019-03-23T09:34:53.180Z,14.43
2019-03-23T09:37:54.775Z,14.45
2019-03-23T09:41:07.519Z,13.10
2019-03-23T09:44:32.791Z,12.85
2019-03-23T09:47:27.463Z,12.78
2019-03-23T09:50:24.914Z,12.82
2019-03-23T09:53:38.078Z,13.43
2019-03-23T09:56:32.619Z,13.43
2019-03-23T09:59:30.226Z,13.32
2019-03-23T10:02:51.159Z,13.50
2019-03-23T10:06:10.489Z,13.43
2019-03-23T10:09:32.679Z,12.33
2019-03-23T10:12:26.614Z,13.50
2019-03-23T10:15:49.293Z,13.20
2019-03-23T10:18:46.572Z,14.20
2019-03-23T10:21:43.441Z,14.13
2019-03-23T10:24:55.317Z,13.20
2019-03-23T10:28:06.679Z,13.40
2019-03-23T10:31:04.331Z,13.18
2019-03-23T10:34:03.528Z,12.60
2019-03-23T10:36:59.896Z,12.88
2019-03-23T10:39:56.437Z,13.00
2019-03-23T10:42:52.858Z,13.28
2019-03-23T10:46:19.369Z,14.55
2019-03-23T10:49:22.815Z,13.40
2019-03-23T10:52:28.631Z,13.28
2019-03-23T10:55:30.483Z,12.65
2019-03-23T10:58:27.020Z,12.47
2019-03-23T11:01:24.669Z,13.65
2019-03-23T11:04:22.640Z,12.95
2019-03-23T11:07:21.246Z,14.00
2019-03-23T11:10:19.425Z,13.43
2019-03-23T11:13:40.318Z,13.55
2019-03-23T11:17:04.646Z,13.43
2019-03-23T11:19:48.709Z,11.95
2019-03-23T11:22:47.822Z,12.30
2019-03-23T11:25:45.966Z,12.85
2019-03-23T11:28:45.984Z,12.65
2019-03-23T11:31:44.312Z,12.95
2019-03-23T11:34:42.481Z,12.55
2019-03-23T11:37:40.929Z,13.18
2019-03-23T11:40:36.917Z,12.70
2019-03-23T11:43:33.507Z,13.50
2019-03-23T11:46:32.598Z,14.25
2019-03-23T11:49:33.162Z,10.90
2019-03-23T11:52:27.306Z,11.75
2019-03-23T11:55:23.669Z,12.23
2019-03-23T11:58:21.109Z,12.05
2019-03-23T12:01:17.674Z,14.65
2019-03-23T12:04:14.696Z,14.20
2019-03-23T12:07:11.746Z,13.83
2019-03-23T12:10:08.628Z,13.08
2019-03-23T12:13:08.646Z,11.93
2019-03-23T12:16:09.389Z,12.18
2019-03-23T12:19:05.986Z,13.30
2019-03-23T12:22:02.700Z,12.47
2019-03-23T12:24:59.903Z,14.40
2019-03-23T12:27:56.951Z,13.25
2019-03-23T12:30:55.999Z,13.80
2019-03-23T12:33:53.062Z,14.38
2019-03-23T12:36:50.029Z,13.20
2019-03-23T12:39:47.324Z,15.43
2019-03-23T12:42:47.904Z,17.05
2019-03-23T12:45:45.040Z,13.40
2019-03-23T12:48:42.820Z,15.28
2019-03-23T12:51:40.984Z,15.80
2019-03-23T12:54:37.518Z,17.32
2019-03-23T12:57:40.903Z,17.07
2019-03-23T13:00:37.874Z,18.05
2019-03-23T13:03:35.152Z,19.98
2019-03-23T13:06:33.773Z,18.65
2019-03-23T13:09:31.450Z,20.20
2019-03-23T13:12:28.104Z,14.10
2019-03-23T13:15:24.789Z,17.98
2019-03-23T13:18:27.128Z,18.60
2019-03-23T13:21:19.260Z,16.67
2019-03-23T13:24:15.726Z,25.08
2019-03-23T13:27:26.243Z,23.18
2019-03-23T13:30:23.038Z,28.30
2019-03-23T13:33:21.311Z,27.27
2019-03-23T13:36:18.079Z,21.62
2019-03-23T13:39:15.021Z,18.80
2019-03-23T13:42:11.219Z,23.27
2019-03-23T13:45:07.726Z,18.15
2019-03-23T13:48:03.976Z,22.02
2019-03-23T13:51:00.374Z,25.27
2019-03-23T13:53:56.514Z,32.98
2019-03-23T13:56:52.392Z,27.22
2019-03-23T13:59:48.637Z,36.95
2019-03-23T14:02:44.751Z,24.98
2019-03-23T14:05:41.920Z,32.38
2019-03-23T14:08:38.690Z,31.60
2019-03-23T14:11:36.526Z,31.45
2019-03-23T14:14:33.363Z,33.80
2019-03-23T14:17:29.484Z,36.68
2019-03-23T14:20:25.608Z,39.00
2019-03-23T14:23:21.814Z,36.10
2019-03-23T14:26:18.585Z,35.70
2019-03-23T14:29:14.441Z,31.50
2019-03-23T14:32:12.587Z,28.65
2019-03-23T14:35:09.778Z,32.23
2019-03-23T14:38:05.943Z,30.50
2019-03-23T14:41:02.697Z,27.60
2019-03-23T14:43:59.717Z,28.07
2019-03-23T14:46:56.001Z,30.95
2019-03-23T14:49:54.007Z,30.77
2019-03-23T14:52:50.669Z,31.17
2019-03-23T14:55:47.277Z,28.87
2019-03-23T14:58:45.452Z,27.13
2019-03-23T15:01:42.181Z,28.92
2019-03-23T15:04:38.300Z,28.50
2019-03-23T15:07:35.189Z,28.70
2019-03-23T15:10:32.316Z,26.25
2019-03-23T15:13:29.508Z,26.73
2019-03-23T15:16:27.204Z,25.57
2019-03-23T15:19:30.540Z,25.35
2019-03-23T15:22:31.258Z,25.85
2019-03-23T15:25:33.558Z,26.60
2019-03-23T15:28:31.307Z,29.50
2019-03-23T15:31:28.113Z,28.55
2019-03-23T15:34:24.676Z,28.98
2019-03-23T15:37:21.610Z,30.20
2019-03-23T15:40:20.481Z,52.03
2019-03-23T15:43:16.730Z,38.42
2019-03-23T15:46:13.305Z,34.55
2019-03-23T15:49:10.265Z,33.05
2019-03-23T15:52:06.775Z,32.58
2019-03-23T15:55:03.399Z,32.83
2019-03-23T15:58:00.132Z,35.25
2019-03-23T16:00:57.279Z,36.15
2019-03-23T16:04:00.607Z,35.65
2019-03-23T16:06:58.098Z,31.75
2019-03-23T16:09:54.958Z,30.57
2019-03-23T16:12:52.983Z,33.85
2019-03-23T16:15:50.314Z,31.00
2019-03-23T16:18:47.854Z,29.27
2019-03-23T16:21:46.422Z,29.35
2019-03-23T16:24:44.775Z,30.45
2019-03-23T16:27:43.492Z,30.68
2019-03-23T16:30:40.205Z,40.78
2019-03-23T16:33:38.372Z,35.35
2019-03-23T16:36:34.532Z,34.45
2019-03-23T16:39:30.853Z,34.08
2019-03-23T16:42:29.312Z,30.92
2019-03-23T16:45:26.593Z,32.13
2019-03-23T16:48:24.276Z,34.35
2019-03-23T16:51:21.561Z,33.42
2019-03-23T16:54:18.088Z,31.62
2019-03-23T16:57:16.725Z,32.05
2019-03-23T17:00:15.383Z,36.45
2019-03-23T17:03:14.632Z,43.48
2019-03-23T17:06:12.865Z,41.60
2019-03-23T17:09:10.304Z,42.62
2019-03-23T17:12:07.361Z,32.70
2019-03-23T17:15:03.984Z,31.42
2019-03-23T17:18:01.136Z,31.95
2019-03-23T17:20:59.421Z,30.48
2019-03-23T17:23:58.939Z,29.37
2019-03-23T17:26:55.885Z,31.25
2019-03-23T17:29:52.656Z,32.42
2019-03-23T17:32:50.322Z,30.27
2019-03-23T17:35:49.339Z,30.48
2019-03-23T17:38:45.984Z,31.02
2019-03-23T17:41:42.609Z,32.13
2019-03-23T17:44:39.963Z,32.38
2019-03-23T17:47:37.573Z,34.38
2019-03-23T17:50:35.194Z,35.65
2019-03-23T17:53:32.031Z,40.05
2019-03-23T17:56:29.815Z,39.88
2019-03-23T17:59:27.435Z,40.33
2019-03-23T18:02:30.711Z,40.70
2019-03-23T18:05:28.051Z,48.73
2019-03-23T18:08:25.240Z,56.77
2019-03-23T18:11:22.415Z,63.68
2019-03-23T18:14:19.683Z,74.47
2019-03-23T18:17:16.423Z,74.85
2019-03-23T18:20:16.445Z,77.03
2019-03-23T18:23:13.238Z,79.15
2019-03-23T18:26:09.843Z,76.57
2019-03-23T18:29:06.229Z,78.72
2019-03-23T18:32:02.791Z,77.25
2019-03-23T18:34:59.779Z,83.00
2019-03-23T18:37:57.498Z,82.27
2019-03-23T18:40:54.292Z,81.40
2019-03-23T18:43:50.407Z,90.00
2019-03-23T18:46:46.442Z,97.78
2019-03-23T18:49:42.373Z,96.85
2019-03-23T18:52:38.753Z,99.67
2019-03-23T18:55:34.511Z,83.42
2019-03-23T18:58:30.948Z,84.50
2019-03-23T19:01:27.476Z,77.70
2019-03-23T19:04:23.958Z,69.25
2019-03-23T19:07:20.214Z,63.98
2019-03-23T19:10:16.655Z,58.95
2019-03-23T19:13:13.739Z,53.58
2019-03-23T19:16:10.229Z,53.25
2019-03-23T19:19:06.663Z,66.17
2019-03-23T19:22:02.929Z,65.95
2019-03-23T19:24:59.086Z,62.45
2019-03-23T19:27:55.658Z,59.27
2019-03-23T19:30:51.730Z,57.58
2019-03-23T19:33:48.233Z,52.95
2019-03-23T19:36:45.521Z,50.28
2019-03-23T19:39:41.884Z,49.93
2019-03-23T19:42:38.128Z,46.48
2019-03-23T19:45:35.271Z,45.58
2019-03-23T19:48:31.625Z,45.60
2019-03-23T19:51:28.405Z,45.75
2019-03-23T19:54:24.508Z,42.27
2019-03-23T19:57:21.125Z,41.77
2019-03-23T20:00:17.303Z,40.85
2019-03-23T20:03:14.134Z,39.83
2019-03-23T20:06:10.061Z,38.95
2019-03-23T20:09:08.037Z,39.33
2019-03-23T20:12:05.054Z,39.53
2019-03-23T20:15:01.628Z,40.67
2019-03-23T20:17:58.041Z,39.92
2019-03-23T20:20:54.785Z,40.80
2019-03-23T20:23:51.363Z,40.78
2019-03-23T20:26:47.915Z,41.00
2019-03-23T20:29:44.374Z,41.30
2019-03-23T20:32:41.254Z,42.00
2019-03-23T20:35:37.346Z,41.00
2019-03-23T20:38:34.260Z,41.77
2019-03-23T20:41:30.855Z,39.38
2019-03-23T20:44:27.864Z,38.78
2019-03-23T20:47:25.315Z,39.65
2019-03-23T20:50:22.280Z,36.08
2019-03-23T20:53:19.232Z,35.25
2019-03-23T20:56:15.823Z,34.10
2019-03-23T20:59:12.327Z,33.20
2019-03-23T21:02:08.022Z,33.88
2019-03-23T21:05:04.207Z,33.65
2019-03-23T21:08:00.135Z,30.62
2019-03-23T21:10:57.385Z,30.57
2019-03-23T21:13:53.283Z,27.35
2019-03-23T21:16:49.246Z,26.65
2019-03-23T21:19:45.232Z,26.52
2019-03-23T21:22:41.015Z,27.30
2019-03-23T21:25:37.238Z,26.77
2019-03-23T21:28:33.406Z,25.32
2019-03-23T21:31:29.782Z,25.65
2019-03-23T21:34:25.674Z,25.27
2019-03-23T21:37:21.797Z,23.67
2019-03-23T21:40:18.200Z,23.15
2019-03-23T21:43:14.678Z,21.37
2019-03-23T21:46:11.061Z,19.95
2019-03-23T21:49:07.538Z,20.00
2019-03-23T21:52:04.957Z,17.90
2019-03-23T21:55:01.277Z,18.02
2019-03-23T21:57:57.609Z,16.73
2019-03-23T22:00:54.342Z,18.00
2019-03-23T22:03:50.963Z,15.95
2019-03-23T22:06:47.190Z,16.50
2019-03-23T22:09:44.194Z,16.17
2019-03-23T22:12:41.409Z,15.25
2019-03-23T22:15:38.070Z,14.73
2019-03-23T22:18:34.378Z,15.90
2019-03-23T22:21:30.879Z,14.23
2019-03-23T22:24:27.339Z,14.15
2019-03-23T22:27:25.684Z,14.33
2019-03-23T22:30:22.368Z,14.15
2019-03-23T22:33:18.936Z,14.70
2019-03-23T22:36:14.651Z,13.50
2019-03-23T22:39:12.026Z,14.07
2019-03-23T22:42:08.471Z,14.50
2019-03-23T22:45:04.503Z,14.33
2019-03-23T22:48:00.556Z,15.00
2019-03-23T22:50:57.404Z,13.88
2019-03-23T22:53:55.357Z,15.90
2019-03-23T22:56:51.119Z,14.75
2019-03-23T22:59:47.754Z,14.65
2019-03-23T23:02:44.473Z,14.78
2019-03-23T23:05:40.907Z,14.93
2019-03-23T23:08:37.800Z,15.48
2019-03-23T23:11:35.252Z,14.98
2019-03-23T23:14:31.048Z,15.53
2019-03-23T23:17:27.514Z,12.58
2019-03-23T23:20:24.348Z,12.20
2019-03-23T23:23:20.635Z,12.28
2019-03-23T23:26:17.631Z,13.95
2019-03-23T23:29:14.222Z,14.23
2019-03-23T23:32:10.153Z,14.28
2019-03-23T23:35:06.749Z,12.80
2019-03-23T23:38:02.681Z,15.85
2019-03-23T23:40:58.561Z,16.27
2019-03-23T23:43:55.210Z,16.90
2019-03-23T23:46:52.341Z,18.32
2019-03-23T23:49:48.266Z,18.17
2019-03-23T23:52:44.340Z,19.23
2019-03-23T23:55:40.787Z,19.12
2019-03-23T23:58:38.056Z,18.45
